createdAt,value
2022-12-28T00:01:15.892Z,2.70
2022-12-28T00:04:07.567Z,2.60
2022-12-28T00:06:58.097Z,2.70
2022-12-28T00:09:48.216Z,2.40
2022-12-28T00:12:38.388Z,2.30
2022-12-28T00:15:28.358Z,2.20
2022-12-28T00:18:18.651Z,2.30
2022-12-28T00:21:08.912Z,2.60
2022-12-28T00:24:01.081Z,2.40
2022-12-28T00:26:52.043Z,2.90
2022-12-28T00:29:41.978Z,2.70
2022-12-28T00:32:32.570Z,2.80
2022-12-28T00:35:23.068Z,2.60
2022-12-28T00:38:13.631Z,2.80
2022-12-28T00:41:03.555Z,2.80
2022-12-28T00:43:53.736Z,2.00
2022-12-28T00:46:44.433Z,2.70
2022-12-28T00:49:34.701Z,2.40
2022-12-28T00:52:24.311Z,2.20
2022-12-28T00:55:14.487Z,2.40
2022-12-28T00:58:04.908Z,2.30
2022-12-28T01:00:55.477Z,2.30
2022-12-28T01:03:48.502Z,2.40
2022-12-28T01:06:39.990Z,2.10
2022-12-28T01:09:30.167Z,2.20
2022-12-28T01:12:20.242Z,2.10
2022-12-28T01:15:14.249Z,2.40
2022-12-28T01:18:05.182Z,2.20
2022-12-28T01:20:55.518Z,2.10
2022-12-28T01:23:46.129Z,2.30
2022-12-28T01:26:37.505Z,2.10
2022-12-28T01:29:27.098Z,2.30
2022-12-28T01:32:18.648Z,2.30
2022-12-28T01:35:10.821Z,2.10
2022-12-28T01:38:01.015Z,2.20
2022-12-28T01:40:51.150Z,2.20
2022-12-28T01:43:45.191Z,2.40
2022-12-28T01:46:40.285Z,2.20
2022-12-28T01:49:34.474Z,2.10
2022-12-28T01:52:30.436Z,2.10
2022-12-28T01:55:24.426Z,2.30
2022-12-28T01:58:20.125Z,2.40
2022-12-28T02:01:10.879Z,2.40
2022-12-28T02:04:01.233Z,2.00
2022-12-28T02:06:51.488Z,2.30
2022-12-28T02:09:45.062Z,2.30
2022-12-28T02:12:58.169Z,2.20
2022-12-28T02:15:51.565Z,2.00
2022-12-28T02:18:44.023Z,2.00
2022-12-28T02:21:47.223Z,2.10
2022-12-28T02:25:12.331Z,2.10
2022-12-28T02:28:21.024Z,1.80
2022-12-28T02:31:15.464Z,2.00
2022-12-28T02:34:15.502Z,1.90
2022-12-28T02:37:12.811Z,1.90
2022-12-28T02:40:08.689Z,1.80
2022-12-28T02:43:02.475Z,1.90
2022-12-28T02:46:11.177Z,2.10
2022-12-28T02:49:24.363Z,2.10
2022-12-28T02:52:22.493Z,2.10
2022-12-28T02:55:43.582Z,2.00
2022-12-28T02:58:52.602Z,2.10
2022-12-28T03:02:13.516Z,2.10
2022-12-28T03:05:16.135Z,1.70
2022-12-28T03:08:20.923Z,2.00
2022-12-28T03:11:17.924Z,1.90
2022-12-28T03:14:12.149Z,1.90
2022-12-28T03:17:22.293Z,1.90
2022-12-28T03:20:40.678Z,1.60
2022-12-28T03:23:50.553Z,1.70
2022-12-28T03:27:03.462Z,1.80
2022-12-28T03:30:18.487Z,1.80
2022-12-28T03:33:11.243Z,2.00
2022-12-28T03:36:11.462Z,2.10
2022-12-28T03:39:12.501Z,1.80
2022-12-28T03:42:27.316Z,1.90
2022-12-28T03:45:46.645Z,1.90
2022-12-28T03:48:37.604Z,1.80
2022-12-28T03:51:30.405Z,1.70
2022-12-28T03:54:22.926Z,1.80
2022-12-28T03:57:13.850Z,1.90
2022-12-28T04:00:09.454Z,2.10
2022-12-28T04:03:05.909Z,2.00
2022-12-28T04:05:59.742Z,1.70
2022-12-28T04:08:50.753Z,1.90
2022-12-28T04:11:41.297Z,1.60
2022-12-28T04:14:33.424Z,2.00
2022-12-28T04:17:23.923Z,1.80
2022-12-28T04:20:14.711Z,1.80
2022-12-28T04:23:06.478Z,1.70
2022-12-28T04:26:05.883Z,1.90
2022-12-28T04:29:00.959Z,1.90
2022-12-28T04:32:02.074Z,1.90
2022-12-28T04:34:52.804Z,2.10
2022-12-28T04:37:43.221Z,1.60
2022-12-28T04:40:33.872Z,1.70
2022-12-28T04:43:24.033Z,1.70
2022-12-28T04:46:16.590Z,1.80
2022-12-28T04:49:07.339Z,1.90
2022-12-28T04:51:57.425Z,2.00
2022-12-28T04:54:48.353Z,2.10
2022-12-28T04:57:38.524Z,1.90
2022-12-28T05:00:28.653Z,2.10
2022-12-28T05:03:19.250Z,2.30
2022-12-28T05:06:12.586Z,2.20
2022-12-28T05:09:02.737Z,2.30
2022-12-28T05:11:53.227Z,2.10
2022-12-28T05:14:44.862Z,2.00
2022-12-28T05:17:35.088Z,2.20
2022-12-28T05:20:24.963Z,1.90
2022-12-28T05:23:15.451Z,2.20
2022-12-28T05:26:05.803Z,1.90
2022-12-28T05:28:57.024Z,1.80
2022-12-28T05:31:47.281Z,1.90
2022-12-28T05:34:37.337Z,2.20
2022-12-28T05:37:28.980Z,1.80
2022-12-28T05:40:20.093Z,2.00
2022-12-28T05:43:10.363Z,2.10
2022-12-28T05:46:05.803Z,2.00
2022-12-28T05:48:56.482Z,2.10
2022-12-28T05:51:46.056Z,1.90
2022-12-28T05:54:36.749Z,1.90
2022-12-28T05:57:27.348Z,2.20
2022-12-28T06:00:18.219Z,2.20
2022-12-28T06:03:08.698Z,2.10
2022-12-28T06:05:58.990Z,2.10
2022-12-28T06:08:50.713Z,2.10
2022-12-28T06:11:40.719Z,2.10
2022-12-28T06:14:31.145Z,2.10
2022-12-28T06:17:21.209Z,2.00
2022-12-28T06:20:13.213Z,2.40
2022-12-28T06:23:03.257Z,2.10
2022-12-28T06:25:53.644Z,2.10
2022-12-28T06:28:44.502Z,2.30
2022-12-28T06:31:36.254Z,2.20
2022-12-28T06:34:26.261Z,2.60
2022-12-28T06:37:16.261Z,2.80
2022-12-28T06:40:08.514Z,2.70
2022-12-28T06:42:59.493Z,3.00
2022-12-28T06:45:58.826Z,2.30
2022-12-28T06:48:49.320Z,2.20
2022-12-28T06:51:42.451Z,2.70
2022-12-28T06:54:32.500Z,2.60
2022-12-28T06:57:23.044Z,3.10
2022-12-28T07:00:16.215Z,2.90
2022-12-28T07:03:06.732Z,2.60
2022-12-28T07:06:00.626Z,2.90
2022-12-28T07:08:51.276Z,2.90
2022-12-28T07:11:41.457Z,3.20
2022-12-28T07:14:32.380Z,2.70
2022-12-28T07:17:22.636Z,3.40
2022-12-28T07:20:13.988Z,3.40
2022-12-28T07:23:03.990Z,3.60
2022-12-28T07:25:54.256Z,2.90
2022-12-28T07:28:46.381Z,2.60
2022-12-28T07:31:44.046Z,2.60
2022-12-28T07:34:35.466Z,2.60
2022-12-28T07:37:27.616Z,2.90
2022-12-28T07:40:18.580Z,3.10
2022-12-28T07:43:09.989Z,3.30
2022-12-28T07:46:06.084Z,3.30
2022-12-28T07:48:57.374Z,3.50
2022-12-28T07:51:47.957Z,3.50
2022-12-28T07:54:38.183Z,3.00
2022-12-28T07:57:29.084Z,3.40
2022-12-28T08:00:20.521Z,2.90
2022-12-28T08:03:11.115Z,3.20
2022-12-28T08:06:08.294Z,2.80
2022-12-28T08:09:00.703Z,3.20
2022-12-28T08:11:51.702Z,3.00
2022-12-28T08:14:41.645Z,3.30
2022-12-28T08:17:31.758Z,3.20
2022-12-28T08:20:23.194Z,3.50
2022-12-28T08:23:13.304Z,3.30
2022-12-28T08:26:11.132Z,2.80
2022-12-28T08:29:03.315Z,2.90
2022-12-28T08:31:53.289Z,3.20
2022-12-28T08:34:44.070Z,3.30
2022-12-28T08:37:34.537Z,3.10
2022-12-28T08:40:29.981Z,3.40
2022-12-28T08:43:20.700Z,3.10
2022-12-28T08:46:14.858Z,3.30
2022-12-28T08:49:06.067Z,3.10
2022-12-28T08:51:56.085Z,3.30
2022-12-28T08:54:46.244Z,3.30
2022-12-28T08:57:37.217Z,3.70
2022-12-28T09:00:27.250Z,3.30
2022-12-28T09:03:17.627Z,3.10
2022-12-28T09:06:10.113Z,3.40
2022-12-28T09:09:06.122Z,3.00
2022-12-28T09:11:57.160Z,3.40
2022-12-28T09:14:47.189Z,3.60
2022-12-28T09:17:37.089Z,3.50
2022-12-28T09:20:27.162Z,3.60
2022-12-28T09:23:17.871Z,3.20
2022-12-28T09:26:09.818Z,3.60
2022-12-28T09:29:01.379Z,3.50
2022-12-28T09:31:51.195Z,3.40
2022-12-28T09:34:41.267Z,3.50
2022-12-28T09:37:32.135Z,3.40
2022-12-28T09:40:22.825Z,3.50
2022-12-28T09:43:14.953Z,3.60
2022-12-28T09:46:05.288Z,3.40
2022-12-28T09:48:59.058Z,3.40
2022-12-28T09:51:54.141Z,3.20
2022-12-28T09:54:44.793Z,3.10
2022-12-28T09:57:40.456Z,3.50
2022-12-28T10:00:38.954Z,3.20
2022-12-28T10:03:35.009Z,3.50
2022-12-28T10:06:28.152Z,3.30
2022-12-28T10:09:26.973Z,3.20
2022-12-28T10:12:21.427Z,3.20
2022-12-28T10:15:15.875Z,3.40
2022-12-28T10:18:08.013Z,3.50
2022-12-28T10:20:58.889Z,3.60
2022-12-28T10:24:29.331Z,3.70
2022-12-28T10:27:05.685Z,4.30
2022-12-28T10:29:56.936Z,5.40
2022-12-28T10:33:01.580Z,5.20
2022-12-28T10:35:58.060Z,7.20
2022-12-28T10:38:54.347Z,18.80
2022-12-28T10:41:45.753Z,19.30
2022-12-28T10:44:40.840Z,15.00
2022-12-28T10:47:35.984Z,17.70
2022-12-28T10:50:48.911Z,5.90
2022-12-28T10:53:45.038Z,5.50
2022-12-28T10:56:45.942Z,4.90
2022-12-28T10:59:35.926Z,4.70
2022-12-28T11:02:30.909Z,5.30
2022-12-28T11:05:26.030Z,5.20
2022-12-28T11:08:16.454Z,4.90
2022-12-28T11:11:07.243Z,5.10
2022-12-28T11:14:01.697Z,4.80
2022-12-28T11:16:51.804Z,4.70
2022-12-28T11:19:41.667Z,5.10
2022-12-28T11:22:33.227Z,4.60
2022-12-28T11:25:28.255Z,4.00
2022-12-28T11:28:22.254Z,4.40
2022-12-28T11:31:18.929Z,4.40
2022-12-28T11:34:16.959Z,4.00
2022-12-28T11:37:12.669Z,4.10
2022-12-28T11:40:02.683Z,4.40
2022-12-28T11:42:58.163Z,3.80
2022-12-28T11:45:59.829Z,4.20
2022-12-28T11:48:58.770Z,4.30
2022-12-28T11:51:49.538Z,4.30
2022-12-28T11:54:51.492Z,4.50
2022-12-28T11:57:44.167Z,4.40
2022-12-28T12:00:51.482Z,4.20
2022-12-28T12:04:18.915Z,4.10
2022-12-28T12:07:41.546Z,4.10
2022-12-28T12:10:42.947Z,3.50
2022-12-28T12:13:48.963Z,3.70
2022-12-28T12:16:50.268Z,3.10
2022-12-28T12:19:43.268Z,3.00
2022-12-28T12:22:37.087Z,3.40
2022-12-28T12:25:36.000Z,3.70
2022-12-28T12:28:36.092Z,4.20
2022-12-28T12:31:32.748Z,4.90
2022-12-28T12:34:27.550Z,4.10
2022-12-28T12:37:45.766Z,4.60
2022-12-28T12:41:01.935Z,4.20
2022-12-28T12:44:07.129Z,4.10
2022-12-28T12:47:27.135Z,4.30
2022-12-28T12:50:49.626Z,4.60
2022-12-28T12:54:01.336Z,4.30
2022-12-28T12:56:57.979Z,4.20
2022-12-28T13:00:03.644Z,4.20
2022-12-28T13:03:24.460Z,3.90
2022-12-28T13:06:17.704Z,4.00
2022-12-28T13:09:15.323Z,4.60
2022-12-28T13:12:15.311Z,4.40
2022-12-28T13:15:12.723Z,3.90
2022-12-28T13:18:43.158Z,4.80
2022-12-28T13:21:22.316Z,4.40
2022-12-28T13:24:24.178Z,4.20
2022-12-28T13:27:22.479Z,3.90
2022-12-28T13:30:21.719Z,4.00
2022-12-28T13:33:30.466Z,3.90
2022-12-28T13:36:21.820Z,4.60
2022-12-28T13:39:16.908Z,4.30
2022-12-28T13:42:15.527Z,4.30
2022-12-28T13:45:09.820Z,4.60
2022-12-28T13:48:02.741Z,4.80
2022-12-28T13:50:54.243Z,4.40
2022-12-28T13:53:47.743Z,4.70
2022-12-28T13:56:41.579Z,3.90
2022-12-28T13:59:32.150Z,3.80
2022-12-28T14:02:24.942Z,4.00
2022-12-28T14:05:21.689Z,4.50
2022-12-28T14:08:12.977Z,3.80
2022-12-28T14:11:03.847Z,3.90
2022-12-28T14:13:57.869Z,4.80
2022-12-28T14:16:48.551Z,4.70
2022-12-28T14:19:39.424Z,4.20
2022-12-28T14:22:34.800Z,4.50
2022-12-28T14:25:25.836Z,4.30
2022-12-28T14:28:24.284Z,4.10
2022-12-28T14:34:29.953Z,3.90
2022-12-28T14:37:27.823Z,4.00
2022-12-28T14:40:26.717Z,4.40
2022-12-28T14:43:24.129Z,4.20
2022-12-28T14:46:31.310Z,4.70
2022-12-28T14:49:36.195Z,4.10
2022-12-28T14:52:47.236Z,4.50
2022-12-28T14:55:42.989Z,4.30
2022-12-28T14:58:39.741Z,5.00
2022-12-28T15:01:43.186Z,5.00
2022-12-28T15:04:38.953Z,4.60
2022-12-28T15:07:29.419Z,4.50
2022-12-28T15:10:19.660Z,5.00
2022-12-28T15:13:09.747Z,4.50
2022-12-28T15:16:02.757Z,4.90
2022-12-28T15:18:53.065Z,4.70
2022-12-28T15:21:42.934Z,5.00
2022-12-28T15:24:34.680Z,5.00
2022-12-28T15:27:24.828Z,5.70
2022-12-28T15:30:20.633Z,5.60
2022-12-28T15:33:14.504Z,5.20
2022-12-28T15:36:17.076Z,5.60
2022-12-28T15:39:08.267Z,5.20
2022-12-28T15:41:58.877Z,5.20
2022-12-28T15:44:51.405Z,5.00
2022-12-28T15:47:43.602Z,5.20
2022-12-28T15:50:34.094Z,5.20
2022-12-28T15:53:24.344Z,4.90
2022-12-28T15:56:23.126Z,4.60
2022-12-28T15:59:17.096Z,4.90
2022-12-28T16:02:07.754Z,5.40
2022-12-28T16:04:58.872Z,5.50
2022-12-28T16:07:49.613Z,5.00
2022-12-28T16:10:39.734Z,5.30
2022-12-28T16:13:29.687Z,5.20
2022-12-28T16:16:19.919Z,5.30
2022-12-28T16:19:10.295Z,5.50
2022-12-28T16:22:00.994Z,5.90
2022-12-28T16:24:51.261Z,6.00
2022-12-28T16:27:41.140Z,6.60
2022-12-28T16:30:31.237Z,6.90
2022-12-28T16:33:22.040Z,8.30
2022-12-28T16:36:16.614Z,9.40
2022-12-28T16:39:08.974Z,8.80
2022-12-28T16:41:59.777Z,8.20
2022-12-28T16:44:51.090Z,8.20
2022-12-28T16:47:44.940Z,8.60
2022-12-28T16:50:35.999Z,7.90
2022-12-28T16:53:26.695Z,7.70
2022-12-28T16:56:16.718Z,7.20
2022-12-28T16:59:06.575Z,6.30
2022-12-28T17:01:58.014Z,7.50
2022-12-28T17:04:48.563Z,7.10
2022-12-28T17:07:38.557Z,6.90
2022-12-28T17:10:29.814Z,6.00
2022-12-28T17:13:20.658Z,6.50
2022-12-28T17:16:11.015Z,6.40
2022-12-28T17:19:02.020Z,7.00
2022-12-28T17:21:52.251Z,6.60
2022-12-28T17:24:42.522Z,6.70
2022-12-28T17:27:33.138Z,6.90
2022-12-28T17:30:23.716Z,6.50
2022-12-28T17:33:15.469Z,8.30
2022-12-28T17:36:06.916Z,8.40
2022-12-28T17:38:57.757Z,8.40
2022-12-28T17:41:47.879Z,12.50
2022-12-28T17:44:39.015Z,17.20
2022-12-28T17:47:29.995Z,13.20
2022-12-28T17:50:23.572Z,10.80
2022-12-28T17:53:14.279Z,10.10
2022-12-28T17:56:08.819Z,10.30
2022-12-28T17:59:00.435Z,10.70
2022-12-28T18:01:50.843Z,12.30
2022-12-28T18:04:42.296Z,12.50
2022-12-28T18:07:33.528Z,13.60
2022-12-28T18:10:23.501Z,13.60
2022-12-28T18:13:15.088Z,13.20
2022-12-28T18:16:09.256Z,14.80
2022-12-28T18:19:00.224Z,14.40
2022-12-28T18:21:50.476Z,14.40
2022-12-28T18:24:41.343Z,12.00
2022-12-28T18:27:31.655Z,12.00
2022-12-28T18:30:23.391Z,12.10
2022-12-28T18:33:13.607Z,13.30
2022-12-28T18:36:13.855Z,14.40
2022-12-28T18:39:07.322Z,13.10
2022-12-28T18:41:57.385Z,12.10
2022-12-28T18:44:48.052Z,13.00
2022-12-28T18:47:38.688Z,11.90
2022-12-28T18:50:29.037Z,13.40
2022-12-28T18:53:19.152Z,13.90
2022-12-28T18:56:11.586Z,13.30
2022-12-28T18:59:01.475Z,14.10
2022-12-28T19:02:08.451Z,12.80
2022-12-28T19:05:00.519Z,12.80
2022-12-28T19:07:50.043Z,11.70
2022-12-28T19:10:39.908Z,11.40
2022-12-28T19:13:33.336Z,11.00
2022-12-28T19:16:30.711Z,10.80
2022-12-28T19:19:21.941Z,10.30
2022-12-28T19:22:12.312Z,9.90
2022-12-28T19:25:02.052Z,10.50
2022-12-28T19:27:52.298Z,10.20
2022-12-28T19:30:42.806Z,10.30
2022-12-28T19:33:33.615Z,10.10
2022-12-28T19:36:23.885Z,10.90
2022-12-28T19:39:14.761Z,11.20
2022-12-28T19:42:04.451Z,11.10
2022-12-28T19:44:54.057Z,11.00
2022-12-28T19:47:44.610Z,11.60
2022-12-28T19:50:34.539Z,11.10
2022-12-28T19:53:24.531Z,10.70
2022-12-28T19:56:17.428Z,11.20
2022-12-28T19:59:07.510Z,10.30
2022-12-28T20:01:57.777Z,9.40
2022-12-28T20:04:47.692Z,9.30
2022-12-28T20:07:40.209Z,8.20
2022-12-28T20:10:30.333Z,8.40
2022-12-28T20:13:20.604Z,8.20
2022-12-28T20:16:10.893Z,8.80
2022-12-28T20:19:01.854Z,9.40
2022-12-28T20:21:52.220Z,10.20
2022-12-28T20:24:42.256Z,9.90
2022-12-28T20:27:32.389Z,10.10
2022-12-28T20:30:22.986Z,9.60
2022-12-28T20:33:13.533Z,9.60
2022-12-28T20:36:05.627Z,9.30
2022-12-28T20:38:57.051Z,9.80
2022-12-28T20:42:05.255Z,9.80
2022-12-28T20:44:57.833Z,10.00
2022-12-28T20:47:48.116Z,9.90
2022-12-28T20:50:38.373Z,9.10
2022-12-28T20:53:29.660Z,8.80
2022-12-28T20:56:19.789Z,9.00
2022-12-28T20:59:10.093Z,8.50
2022-12-28T21:02:00.474Z,8.80
2022-12-28T21:04:50.419Z,8.40
2022-12-28T21:07:40.507Z,9.00
2022-12-28T21:10:30.828Z,8.60
2022-12-28T21:13:20.588Z,8.90
2022-12-28T21:16:11.626Z,8.20
2022-12-28T21:19:01.585Z,8.30
2022-12-28T21:21:51.788Z,8.60
2022-12-28T21:24:41.888Z,9.30
2022-12-28T21:27:31.757Z,11.10
2022-12-28T21:30:22.607Z,10.10
2022-12-28T21:33:13.266Z,10.60
2022-12-28T21:36:06.171Z,10.20
2022-12-28T21:38:56.509Z,10.30
2022-12-28T21:41:49.818Z,17.30
2022-12-28T21:44:39.963Z,12.00
2022-12-28T21:47:30.028Z,10.60
2022-12-28T21:50:20.576Z,9.70
2022-12-28T21:53:10.815Z,10.30
2022-12-28T21:56:01.026Z,9.40
2022-12-28T21:58:52.051Z,9.50
2022-12-28T22:02:01.282Z,9.00
2022-12-28T22:05:14.847Z,8.20
2022-12-28T22:08:19.431Z,9.20
2022-12-28T22:11:31.467Z,8.50
2022-12-28T22:14:21.899Z,9.90
2022-12-28T22:17:14.389Z,10.10
2022-12-28T22:20:05.632Z,8.30
2022-12-28T22:22:58.306Z,8.30
2022-12-28T22:25:49.745Z,8.00
2022-12-28T22:28:39.973Z,7.80
2022-12-28T22:31:30.635Z,7.60
2022-12-28T22:34:20.628Z,7.20
2022-12-28T22:37:13.471Z,7.20
2022-12-28T22:40:03.565Z,6.80
2022-12-28T22:42:54.516Z,7.20
2022-12-28T22:45:44.631Z,6.80
2022-12-28T22:48:35.221Z,6.40
2022-12-28T22:51:25.059Z,6.30
2022-12-28T22:54:15.206Z,5.90
2022-12-28T22:57:07.148Z,5.80
2022-12-28T22:59:57.353Z,5.70
2022-12-28T23:02:48.069Z,5.70
2022-12-28T23:05:38.547Z,5.20
2022-12-28T23:08:29.099Z,5.10
2022-12-28T23:11:34.426Z,5.50
2022-12-28T23:14:43.547Z,5.50
2022-12-28T23:17:33.883Z,5.80
2022-12-28T23:20:41.178Z,5.60
2022-12-28T23:23:48.719Z,6.00
2022-12-28T23:26:56.771Z,6.20
2022-12-28T23:29:47.543Z,6.40
2022-12-28T23:32:37.438Z,6.50
2022-12-28T23:35:28.853Z,6.60
2022-12-28T23:38:19.318Z,9.00
2022-12-28T23:41:27.380Z,6.40
2022-12-28T23:44:20.497Z,5.70
2022-12-28T23:47:10.868Z,5.90
2022-12-28T23:50:01.427Z,5.60
2022-12-28T23:52:52.381Z,6.10
2022-12-28T23:55:43.081Z,5.50
2022-12-28T23:58:33.562Z,5.50
